createdAt,value
2023-03-17T00:01:47.894Z,75.27
2023-03-17T00:04:17.040Z,75.73
2023-03-17T00:06:44.799Z,75.39
2023-03-17T00:09:14.790Z,75.67
2023-03-17T00:11:42.762Z,75.66
2023-03-17T00:14:10.924Z,75.83
2023-03-17T00:16:40.425Z,75.67
2023-03-17T00:19:08.315Z,75.80
2023-03-17T00:21:38.918Z,76.19
2023-03-17T00:24:08.111Z,75.82
2023-03-17T00:26:36.040Z,76.33
2023-03-17T00:29:03.766Z,75.96
2023-03-17T00:31:32.746Z,75.82
2023-03-17T00:34:00.488Z,75.70
2023-03-17T00:36:30.643Z,75.67
2023-03-17T00:39:00.410Z,76.15
2023-03-17T00:41:29.499Z,76.30
2023-03-17T00:43:57.674Z,75.94
2023-03-17T00:46:28.660Z,76.30
2023-03-17T00:48:56.609Z,76.03
2023-03-17T00:51:24.384Z,76.01
2023-03-17T00:53:52.689Z,76.30
2023-03-17T00:56:22.562Z,76.45
2023-03-17T00:58:50.642Z,75.59
2023-03-17T01:01:19.980Z,76.29
2023-03-17T01:03:47.829Z,76.20
2023-03-17T01:06:16.456Z,76.10
2023-03-17T01:08:45.357Z,75.34
2023-03-17T01:11:18.473Z,76.00
2023-03-17T01:13:47.889Z,75.52
2023-03-17T01:16:17.005Z,75.99
2023-03-17T01:18:45.682Z,76.45
2023-03-17T01:21:13.975Z,76.09
2023-03-17T01:23:42.122Z,76.22
2023-03-17T01:26:09.888Z,75.66
2023-03-17T01:28:37.750Z,75.46
2023-03-17T01:31:06.915Z,75.96
2023-03-17T01:33:35.127Z,75.77
2023-03-17T01:36:03.083Z,75.69
2023-03-17T01:38:31.271Z,75.79
2023-03-17T01:40:59.280Z,75.96
2023-03-17T01:43:29.353Z,75.96
2023-03-17T01:46:25.281Z,75.52
2023-03-17T01:49:05.694Z,75.81
2023-03-17T01:51:37.721Z,75.50
2023-03-17T01:54:09.525Z,75.76
2023-03-17T01:56:41.712Z,76.00
2023-03-17T01:59:15.824Z,75.89
2023-03-17T02:01:49.489Z,75.23
2023-03-17T02:04:19.402Z,76.10
2023-03-17T02:06:57.542Z,75.71
2023-03-17T02:09:27.695Z,75.68
2023-03-17T02:11:56.558Z,75.50
2023-03-17T02:14:25.573Z,75.65
2023-03-17T02:16:54.796Z,75.48
2023-03-17T02:19:22.633Z,75.45
2023-03-17T02:21:55.047Z,75.46
2023-03-17T02:24:29.385Z,75.27
2023-03-17T02:27:02.700Z,75.18
2023-03-17T02:29:34.922Z,75.54
2023-03-17T02:32:02.960Z,74.82
2023-03-17T02:34:31.428Z,75.16
2023-03-17T02:37:01.116Z,75.54
2023-03-17T02:39:28.869Z,75.55
2023-03-17T02:41:56.630Z,75.51
2023-03-17T02:44:24.813Z,75.50
2023-03-17T02:46:52.632Z,75.91
2023-03-17T02:49:20.807Z,76.20
2023-03-17T02:51:49.752Z,76.55
2023-03-17T02:54:18.911Z,76.20
2023-03-17T02:56:46.648Z,76.20
2023-03-17T02:59:14.357Z,76.05
2023-03-17T03:01:42.191Z,76.38
2023-03-17T03:04:09.955Z,76.32
2023-03-17T03:06:39.690Z,76.35
2023-03-17T03:09:07.470Z,76.08
2023-03-17T03:11:36.579Z,76.45
2023-03-17T03:14:04.634Z,76.49
2023-03-17T03:16:32.642Z,76.52
2023-03-17T03:19:00.635Z,76.17
2023-03-17T03:21:28.991Z,76.75
2023-03-17T03:23:56.843Z,76.37
2023-03-17T03:26:24.634Z,76.61
2023-03-17T03:28:54.021Z,76.84
2023-03-17T03:31:22.652Z,76.70
2023-03-17T03:33:50.637Z,76.46
2023-03-17T03:36:18.518Z,76.70
2023-03-17T03:38:46.586Z,76.67
2023-03-17T03:41:14.308Z,76.38
2023-03-17T03:43:42.264Z,76.29
2023-03-17T03:46:11.554Z,76.28
2023-03-17T03:48:39.255Z,76.48
2023-03-17T03:51:07.028Z,75.91
2023-03-17T03:53:34.780Z,76.21
2023-03-17T03:56:02.854Z,75.74
2023-03-17T03:58:30.655Z,75.55
2023-03-17T04:00:58.312Z,75.62
2023-03-17T04:03:27.921Z,76.13
2023-03-17T04:05:55.699Z,76.11
2023-03-17T04:08:23.545Z,76.04
2023-03-17T04:10:51.302Z,76.02
2023-03-17T04:13:19.161Z,76.52
2023-03-17T04:15:46.959Z,76.67
2023-03-17T04:18:15.002Z,76.45
2023-03-17T04:20:44.555Z,76.58
2023-03-17T04:23:12.814Z,76.40
2023-03-17T04:25:40.772Z,76.47
2023-03-17T04:28:08.971Z,76.61
2023-03-17T04:30:36.834Z,76.19
2023-03-17T04:33:04.791Z,76.64
2023-03-17T04:35:34.575Z,76.61
2023-03-17T04:38:03.826Z,76.01
2023-03-17T04:40:32.028Z,76.15
2023-03-17T04:43:01.830Z,75.93
2023-03-17T04:45:30.888Z,76.21
2023-03-17T04:47:58.599Z,75.38
2023-03-17T04:50:26.528Z,75.75
2023-03-17T04:52:54.355Z,76.37
2023-03-17T04:55:23.435Z,76.18
2023-03-17T04:57:51.185Z,76.10
2023-03-17T05:00:21.615Z,75.94
2023-03-17T05:02:49.330Z,75.73
2023-03-17T05:05:17.116Z,75.72
2023-03-17T05:07:45.437Z,76.22
2023-03-17T05:10:16.096Z,76.06
2023-03-17T05:12:45.852Z,76.22
2023-03-17T05:15:14.205Z,75.54
2023-03-17T05:17:41.902Z,75.85
2023-03-17T05:20:10.830Z,75.64
2023-03-17T05:22:38.585Z,76.07
2023-03-17T05:25:09.004Z,76.17
2023-03-17T05:27:37.617Z,76.13
2023-03-17T05:30:08.323Z,75.73
2023-03-17T05:32:36.493Z,75.08
2023-03-17T05:35:06.047Z,75.22
2023-03-17T05:37:33.867Z,75.39
2023-03-17T05:40:03.965Z,75.28
2023-03-17T05:42:31.727Z,75.36
2023-03-17T05:44:59.408Z,75.20
2023-03-17T05:47:28.636Z,75.17
2023-03-17T05:49:56.301Z,74.50
2023-03-17T05:52:23.958Z,74.69
2023-03-17T05:54:52.265Z,74.44
2023-03-17T05:57:20.420Z,74.50
2023-03-17T05:59:48.304Z,74.24
2023-03-17T06:02:16.589Z,74.79
2023-03-17T06:04:45.800Z,74.29
2023-03-17T06:07:13.932Z,74.14
2023-03-17T06:09:41.696Z,74.66
2023-03-17T06:12:10.888Z,74.44
2023-03-17T06:14:38.711Z,74.20
2023-03-17T06:17:06.729Z,73.87
2023-03-17T06:19:34.538Z,74.35
2023-03-17T06:22:03.690Z,73.43
2023-03-17T06:24:35.223Z,73.21
2023-03-17T06:27:03.023Z,73.14
2023-03-17T06:29:30.889Z,73.56
2023-03-17T06:32:09.245Z,73.77
2023-03-17T06:34:45.109Z,72.99
2023-03-17T06:37:14.722Z,72.63
2023-03-17T06:39:42.834Z,72.88
2023-03-17T06:42:10.863Z,73.13
2023-03-17T06:44:38.870Z,72.00
2023-03-17T06:47:06.884Z,72.17
2023-03-17T06:49:35.021Z,72.25
2023-03-17T06:52:02.857Z,71.93
2023-03-17T06:54:32.592Z,71.40
2023-03-17T06:57:00.328Z,70.98
2023-03-17T06:59:28.099Z,70.96
2023-03-17T07:01:55.799Z,70.83
2023-03-17T07:04:23.736Z,70.24
2023-03-17T07:06:51.597Z,70.30
2023-03-17T07:09:19.425Z,70.36
2023-03-17T07:11:48.643Z,70.32
2023-03-17T07:14:16.394Z,70.42
2023-03-17T07:16:45.065Z,70.04
2023-03-17T07:19:12.988Z,70.09
2023-03-17T07:21:40.912Z,69.73
2023-03-17T07:24:09.832Z,69.71
2023-03-17T07:26:37.544Z,69.63
2023-03-17T07:29:08.297Z,69.28
2023-03-17T07:31:38.526Z,69.10
2023-03-17T07:34:06.516Z,68.55
2023-03-17T07:36:34.555Z,68.67
2023-03-17T07:39:02.254Z,68.50
2023-03-17T07:41:29.980Z,68.69
2023-03-17T07:43:58.446Z,68.29
2023-03-17T07:46:27.719Z,68.36
2023-03-17T07:48:55.547Z,68.36
2023-03-17T07:51:27.546Z,68.18
2023-03-17T07:54:03.119Z,68.18
2023-03-17T07:56:31.983Z,67.45
2023-03-17T07:59:00.079Z,66.73
2023-03-17T08:01:30.470Z,67.07
2023-03-17T08:03:58.683Z,66.92
2023-03-17T08:06:26.964Z,66.35
2023-03-17T08:08:55.766Z,66.63
2023-03-17T08:11:24.199Z,67.02
2023-03-17T08:13:52.029Z,66.64
2023-03-17T08:16:19.845Z,67.17
2023-03-17T08:18:49.205Z,66.43
2023-03-17T08:21:17.535Z,66.35
2023-03-17T08:23:45.532Z,66.09
2023-03-17T08:26:14.233Z,65.69
2023-03-17T08:28:43.063Z,65.63
2023-03-17T08:31:13.656Z,65.28
2023-03-17T08:33:42.337Z,64.46
2023-03-17T08:36:12.839Z,64.72
2023-03-17T08:38:42.550Z,64.92
2023-03-17T08:41:12.263Z,64.26
2023-03-17T08:43:40.506Z,64.55
2023-03-17T08:46:11.322Z,64.32
2023-03-17T08:48:39.143Z,63.76
2023-03-17T08:51:07.251Z,63.87
2023-03-17T08:53:37.307Z,64.11
2023-03-17T08:56:06.949Z,62.99
2023-03-17T08:58:35.682Z,63.39
2023-03-17T09:01:05.650Z,63.47
2023-03-17T09:03:34.195Z,62.12
2023-03-17T09:06:04.592Z,62.57
2023-03-17T09:08:32.864Z,62.15
2023-03-17T09:11:05.274Z,61.71
2023-03-17T09:13:33.207Z,61.61
2023-03-17T09:16:01.325Z,62.36
2023-03-17T09:18:31.286Z,61.81
2023-03-17T09:20:59.156Z,61.97
2023-03-17T09:23:27.025Z,62.40
2023-03-17T09:25:55.250Z,61.13
2023-03-17T09:28:24.540Z,61.40
2023-03-17T09:30:52.754Z,61.50
2023-03-17T09:33:21.063Z,61.56
2023-03-17T09:35:48.917Z,60.44
2023-03-17T09:38:17.056Z,60.78
2023-03-17T09:40:48.980Z,61.23
2023-03-17T09:43:32.963Z,60.34
2023-03-17T09:46:11.224Z,60.84
2023-03-17T09:49:00.178Z,60.80
2023-03-17T09:51:31.189Z,59.99
2023-03-17T09:54:01.541Z,60.42
2023-03-17T09:56:31.929Z,60.03
2023-03-17T09:59:08.418Z,60.02
2023-03-17T10:01:38.291Z,60.24
2023-03-17T10:04:06.412Z,60.26
2023-03-17T10:06:37.840Z,59.91
2023-03-17T10:09:25.491Z,58.62
2023-03-17T10:12:04.497Z,58.60
2023-03-17T10:14:43.292Z,57.00
2023-03-17T10:17:17.596Z,56.99
2023-03-17T10:19:50.872Z,57.04
2023-03-17T10:22:23.649Z,57.34
2023-03-17T10:24:54.121Z,57.52
2023-03-17T10:27:22.420Z,55.91
2023-03-17T10:29:51.723Z,56.03
2023-03-17T10:32:19.617Z,56.52
2023-03-17T10:34:49.315Z,56.92
2023-03-17T10:37:21.166Z,56.95
2023-03-17T10:39:52.270Z,57.29
2023-03-17T10:42:25.538Z,55.91
2023-03-17T10:44:57.626Z,57.12
2023-03-17T10:47:32.252Z,56.13
2023-03-17T10:50:05.462Z,55.36
2023-03-17T10:52:39.543Z,54.76
2023-03-17T10:55:10.606Z,55.42
2023-03-17T10:57:39.914Z,55.12
2023-03-17T11:00:19.809Z,54.15
2023-03-17T11:02:52.430Z,54.81
2023-03-17T11:05:22.826Z,53.35
2023-03-17T11:07:58.924Z,54.48
2023-03-17T11:10:29.208Z,54.03
2023-03-17T11:13:00.700Z,53.49
2023-03-17T11:15:34.795Z,53.40
2023-03-17T11:18:04.343Z,52.30
2023-03-17T11:20:44.573Z,53.55
2023-03-17T11:23:32.820Z,54.20
2023-03-17T11:26:14.802Z,53.33
2023-03-17T11:28:49.456Z,52.79
2023-03-17T11:31:25.337Z,52.53
2023-03-17T11:34:04.333Z,51.68
2023-03-17T11:36:46.060Z,52.99
2023-03-17T11:39:17.398Z,51.93
2023-03-17T11:41:54.680Z,52.73
2023-03-17T11:44:43.245Z,52.73
2023-03-17T11:47:27.801Z,53.04
2023-03-17T11:50:04.464Z,52.37
2023-03-17T11:52:39.748Z,52.45
2023-03-17T11:55:17.634Z,52.63
2023-03-17T11:57:52.076Z,53.20
2023-03-17T12:00:28.441Z,53.79
2023-03-17T12:03:05.679Z,54.48
2023-03-17T12:05:35.691Z,53.03
2023-03-17T12:08:07.588Z,52.32
2023-03-17T12:10:41.223Z,52.74
2023-03-17T12:13:16.593Z,53.47
2023-03-17T12:15:48.485Z,52.78
2023-03-17T12:18:25.164Z,51.99
2023-03-17T12:20:57.344Z,52.03
2023-03-17T12:23:33.717Z,52.68
2023-03-17T12:26:06.934Z,51.87
2023-03-17T12:28:39.316Z,52.19
2023-03-17T12:31:10.427Z,51.49
2023-03-17T12:33:46.129Z,52.06
2023-03-17T12:36:17.531Z,51.96
2023-03-17T12:38:47.839Z,52.22
2023-03-17T12:41:31.531Z,52.20
2023-03-17T12:44:23.026Z,52.94
2023-03-17T12:47:17.276Z,52.89
2023-03-17T12:50:25.341Z,52.74
2023-03-17T12:53:10.378Z,52.13
2023-03-17T12:55:39.237Z,52.47
2023-03-17T12:58:25.918Z,52.38
2023-03-17T13:01:02.492Z,52.93
2023-03-17T13:03:33.260Z,52.83
2023-03-17T13:06:04.901Z,52.73
2023-03-17T13:08:35.794Z,53.18
2023-03-17T13:11:19.615Z,54.00
2023-03-17T13:13:59.101Z,54.50
2023-03-17T13:16:29.773Z,53.13
2023-03-17T13:19:22.747Z,53.30
2023-03-17T13:21:54.380Z,54.14
2023-03-17T13:24:40.280Z,54.23
2023-03-17T13:27:12.278Z,53.71
2023-03-17T13:29:47.841Z,54.62
2023-03-17T13:32:39.900Z,54.93
2023-03-17T13:35:37.564Z,54.33
2023-03-17T13:38:40.999Z,55.18
2023-03-17T13:41:24.815Z,54.90
2023-03-17T13:44:22.844Z,54.69
2023-03-17T13:46:51.558Z,54.73
2023-03-17T13:49:30.307Z,54.49
2023-03-17T13:52:03.425Z,54.10
2023-03-17T13:54:35.181Z,53.95
2023-03-17T13:57:26.672Z,54.31
2023-03-17T13:59:58.624Z,53.52
2023-03-17T14:02:30.222Z,53.62
2023-03-17T14:05:00.344Z,54.29
2023-03-17T14:07:32.335Z,53.88
2023-03-17T14:10:04.962Z,54.40
2023-03-17T14:12:41.223Z,54.68
2023-03-17T14:15:16.868Z,54.54
2023-03-17T14:17:48.400Z,55.11
2023-03-17T14:20:24.402Z,55.31
2023-03-17T14:22:56.586Z,54.93
2023-03-17T14:25:27.501Z,54.78
2023-03-17T14:27:58.539Z,54.95
2023-03-17T14:30:28.622Z,55.07
2023-03-17T14:33:02.767Z,54.67
2023-03-17T14:35:32.097Z,54.98
2023-03-17T14:38:01.160Z,55.37
2023-03-17T14:40:36.830Z,55.36
2023-03-17T14:43:05.263Z,55.86
2023-03-17T14:45:47.557Z,56.44
2023-03-17T14:48:17.480Z,55.84
2023-03-17T14:50:52.250Z,56.04
2023-03-17T14:53:20.433Z,56.61
2023-03-17T14:55:49.832Z,56.64
2023-03-17T14:58:25.549Z,57.03
2023-03-17T15:00:59.569Z,56.60
2023-03-17T15:03:33.084Z,56.36
2023-03-17T15:06:08.102Z,56.34
2023-03-17T15:08:46.078Z,56.42
2023-03-17T15:11:39.496Z,55.71
2023-03-17T15:14:19.291Z,56.70
2023-03-17T15:16:50.613Z,56.87
2023-03-17T15:19:27.597Z,57.04
2023-03-17T15:22:00.273Z,57.66
2023-03-17T15:24:47.135Z,57.56
2023-03-17T15:27:18.237Z,57.88
2023-03-17T15:29:47.415Z,57.72
2023-03-17T15:32:16.514Z,57.99
2023-03-17T15:34:44.509Z,58.08
2023-03-17T15:37:18.142Z,57.69
2023-03-17T15:39:46.530Z,58.32
2023-03-17T15:42:14.349Z,58.18
2023-03-17T15:44:43.999Z,58.55
2023-03-17T15:47:15.560Z,58.23
2023-03-17T15:49:43.787Z,58.03
2023-03-17T15:52:16.848Z,58.49
2023-03-17T15:54:45.362Z,58.38
2023-03-17T15:57:13.868Z,58.11
2023-03-17T15:59:43.138Z,58.19
2023-03-17T16:02:27.484Z,57.65
2023-03-17T16:04:55.755Z,58.92
2023-03-17T16:07:23.943Z,58.62
2023-03-17T16:09:51.989Z,58.30
2023-03-17T16:12:20.271Z,58.98
2023-03-17T16:14:49.343Z,58.68
2023-03-17T16:17:21.503Z,59.55
2023-03-17T16:19:49.340Z,59.11
2023-03-17T16:22:37.450Z,59.22
2023-03-17T16:25:06.173Z,59.00
2023-03-17T16:27:34.751Z,59.63
2023-03-17T16:30:04.364Z,59.64
2023-03-17T16:32:32.071Z,60.27
2023-03-17T16:34:59.840Z,60.38
2023-03-17T16:37:27.549Z,60.21
2023-03-17T16:39:55.278Z,59.52
2023-03-17T16:42:23.825Z,59.39
2023-03-17T16:44:51.861Z,59.75
2023-03-17T16:47:20.990Z,60.06
2023-03-17T16:49:48.681Z,59.54
2023-03-17T16:52:16.416Z,60.08
2023-03-17T16:54:44.154Z,60.07
2023-03-17T16:57:13.484Z,60.49
2023-03-17T16:59:41.312Z,60.55
2023-03-17T17:02:16.886Z,60.67
2023-03-17T17:04:46.355Z,60.54
2023-03-17T17:07:14.030Z,60.44
2023-03-17T17:09:41.778Z,60.76
2023-03-17T17:12:10.437Z,59.72
2023-03-17T17:14:38.332Z,60.18
2023-03-17T17:17:06.267Z,60.63
2023-03-17T17:19:34.013Z,60.65
2023-03-17T17:22:03.132Z,61.19
2023-03-17T17:24:31.071Z,60.38
2023-03-17T17:26:58.923Z,60.30
2023-03-17T17:29:26.606Z,60.14
2023-03-17T17:31:54.293Z,60.21
2023-03-17T17:34:22.313Z,59.97
2023-03-17T17:36:50.309Z,60.04
2023-03-17T17:39:19.408Z,59.39
2023-03-17T17:41:47.142Z,60.11
2023-03-17T17:44:16.639Z,59.73
2023-03-17T17:46:44.434Z,59.60
2023-03-17T17:49:12.454Z,59.39
2023-03-17T17:51:40.155Z,59.87
2023-03-17T17:54:07.986Z,59.94
2023-03-17T17:56:40.130Z,59.67
2023-03-17T17:59:08.031Z,59.87
2023-03-17T18:01:35.852Z,59.75
2023-03-17T18:04:03.761Z,59.81
2023-03-17T18:06:31.576Z,60.41
2023-03-17T18:08:59.927Z,60.33
2023-03-17T18:11:27.704Z,60.52
2023-03-17T18:13:56.735Z,60.90
2023-03-17T18:16:25.770Z,60.74
2023-03-17T18:18:53.783Z,60.16
2023-03-17T18:21:21.564Z,60.62
2023-03-17T18:23:49.947Z,59.81
2023-03-17T18:26:18.472Z,60.76
2023-03-17T18:28:47.437Z,61.24
2023-03-17T18:31:19.951Z,61.11
2023-03-17T18:33:51.148Z,60.49
2023-03-17T18:36:19.674Z,61.26
2023-03-17T18:38:47.378Z,60.58
2023-03-17T18:41:15.537Z,60.99
2023-03-17T18:43:44.775Z,61.53
2023-03-17T18:46:12.971Z,61.33
2023-03-17T18:48:42.443Z,61.04
2023-03-17T18:51:10.635Z,61.09
2023-03-17T18:53:39.130Z,61.55
2023-03-17T18:56:07.584Z,61.39
2023-03-17T18:58:36.179Z,61.73
2023-03-17T19:01:04.365Z,61.78
2023-03-17T19:03:33.258Z,61.89
2023-03-17T19:06:13.293Z,61.46
2023-03-17T19:08:42.869Z,61.43
2023-03-17T19:11:12.295Z,61.54
2023-03-17T19:13:40.704Z,62.09
2023-03-17T19:16:09.324Z,61.95
2023-03-17T19:18:40.817Z,61.80
2023-03-17T19:21:13.009Z,62.51
2023-03-17T19:23:44.922Z,62.06
2023-03-17T19:26:12.704Z,62.13
2023-03-17T19:28:40.484Z,61.95
2023-03-17T19:31:09.408Z,62.94
2023-03-17T19:33:37.244Z,62.59
2023-03-17T19:36:08.488Z,62.70
2023-03-17T19:38:37.740Z,62.75
2023-03-17T19:41:06.714Z,62.62
2023-03-17T19:43:40.854Z,62.51
2023-03-17T19:46:10.243Z,62.86
2023-03-17T19:48:46.636Z,63.00
2023-03-17T19:51:14.724Z,63.04
2023-03-17T19:53:43.781Z,63.12
2023-03-17T19:56:11.878Z,63.50
2023-03-17T19:58:39.636Z,63.36
2023-03-17T20:01:08.406Z,63.65
2023-03-17T20:03:39.258Z,63.91
2023-03-17T20:06:06.985Z,64.33
2023-03-17T20:08:35.605Z,64.43
2023-03-17T20:11:05.946Z,64.73
2023-03-17T20:13:34.628Z,64.84
2023-03-17T20:16:02.903Z,64.34
2023-03-17T20:18:31.503Z,64.47
2023-03-17T20:21:00.281Z,64.25
2023-03-17T20:23:28.483Z,64.65
2023-03-17T20:25:57.289Z,64.93
2023-03-17T20:28:29.503Z,64.69
2023-03-17T20:31:00.439Z,64.67
2023-03-17T20:33:28.329Z,64.94
2023-03-17T20:35:56.037Z,65.55
2023-03-17T20:38:25.551Z,64.97
2023-03-17T20:40:53.241Z,65.30
2023-03-17T20:43:20.968Z,65.40
2023-03-17T20:45:53.080Z,65.50
2023-03-17T20:48:21.565Z,65.58
2023-03-17T20:50:50.798Z,65.60
2023-03-17T20:53:18.516Z,65.50
2023-03-17T20:55:47.232Z,66.23
2023-03-17T21:16:50.371Z,66.59
2023-03-17T21:19:18.080Z,66.52
2023-03-17T21:21:45.834Z,66.18
2023-03-17T21:24:25.369Z,67.08
2023-03-17T21:26:53.333Z,66.91
2023-03-17T21:29:22.015Z,67.11
2023-03-17T21:31:51.750Z,67.18
2023-03-17T21:34:19.957Z,67.35
2023-03-17T21:36:47.955Z,67.35
2023-03-17T21:39:16.259Z,67.87
2023-03-17T21:41:44.687Z,68.17
2023-03-17T21:44:15.779Z,68.05
2023-03-17T21:46:43.956Z,67.65
2023-03-17T21:49:16.037Z,67.72
2023-03-17T21:51:44.338Z,68.16
2023-03-17T21:54:12.481Z,67.78
2023-03-17T21:56:41.337Z,67.68
2023-03-17T21:59:10.888Z,68.32
2023-03-17T22:01:38.916Z,67.93
2023-03-17T22:04:06.845Z,68.24
2023-03-17T22:06:36.066Z,68.25
2023-03-17T22:09:05.368Z,68.93
2023-03-17T22:11:33.209Z,68.35
2023-03-17T22:14:01.774Z,68.84
2023-03-17T22:16:29.767Z,69.06
2023-03-17T22:18:57.636Z,68.81
2023-03-17T22:21:25.884Z,68.80
2023-03-17T22:23:55.093Z,68.90
2023-03-17T22:26:23.293Z,68.91
2023-03-17T22:28:51.976Z,69.04
2023-03-17T22:31:22.281Z,69.18
2023-03-17T22:33:52.390Z,69.10
2023-03-17T22:36:20.357Z,69.17
2023-03-17T22:38:48.662Z,69.45
2023-03-17T22:41:21.521Z,68.98
2023-03-17T22:43:49.520Z,69.15
2023-03-17T22:46:18.263Z,68.78
2023-03-17T22:48:46.733Z,69.04
2023-03-17T22:51:16.927Z,69.13
2023-03-17T22:53:45.375Z,69.52
2023-03-17T22:56:14.711Z,69.78
2023-03-17T22:58:44.214Z,70.04
2023-03-17T23:01:13.738Z,69.49
2023-03-17T23:03:42.094Z,69.59
2023-03-17T23:06:11.358Z,69.60
2023-03-17T23:08:40.297Z,69.49
2023-03-17T23:11:11.646Z,69.96
2023-03-17T23:13:40.495Z,69.42
2023-03-17T23:16:10.704Z,70.24
2023-03-17T23:18:38.618Z,69.98
2023-03-17T23:21:07.367Z,70.26
2023-03-17T23:23:36.131Z,70.44
2023-03-17T23:26:04.200Z,70.04
2023-03-17T23:28:32.142Z,69.88
2023-03-17T23:31:00.018Z,71.00
2023-03-17T23:33:29.445Z,70.69
2023-03-17T23:35:57.243Z,70.22
2023-03-17T23:38:25.139Z,70.59
2023-03-17T23:40:57.186Z,70.63
2023-03-17T23:43:26.010Z,71.44
2023-03-17T23:45:54.360Z,70.73
2023-03-17T23:48:22.351Z,71.30
2023-03-17T23:50:53.801Z,70.53
2023-03-17T23:53:23.337Z,70.65
2023-03-17T23:55:53.025Z,70.82
2023-03-17T23:58:21.143Z,71.35
